Time;durP1;ratioP1;P1;durP2;ratioP2;P2;SDS_P1;SDS_P2;PMS_P1;PMS_P2;Temp;Humidity;BMP_temperature;BMP_pressure;BME280_temperature;BME280_humidity;BME280_pressure;Samples;Min_cycle;Max_cycle;Signal;HPM_P1;HPM_P2
2022/01/20 00:03:18;;;;;;;19.15;7.70;;;;;;;-145.82;100.00;61645.16;4964522;28;20070;-69
2022/01/20 00:27:08;;;;;;;37.92;9.18;;;;;;;-145.82;100.00;61645.16;4963882;28;20038;-69
2022/01/20 00:29:58;;;;;;;36.47;10.88;;;;;;;-145.82;100.00;61645.16;4964226;28;20055;-69
2022/01/20 00:32:23;;;;;;;38.35;10.73;;;;;;;-145.82;100.00;61645.16;4962467;28;20039;-71
2022/01/20 00:37:23;;;;;;;24.50;7.75;;;;;;;-145.82;100.00;61645.16;4963904;28;20121;-70
2022/01/20 00:39:49;;;;;;;33.47;8.68;;;;;;;-145.82;100.00;61645.16;4965044;28;20066;-71
2022/01/20 00:42:15;;;;;;;17.30;7.13;;;;;;;-145.82;100.00;61645.16;4964527;28;20066;-72
2022/01/20 00:44:42;;;;;;;15.73;5.57;;;;;;;-145.82;100.00;61645.16;4963712;28;20105;-69
2022/01/20 00:47:08;;;;;;;33.25;8.65;;;;;;;-145.82;100.00;61645.16;4962856;28;20046;-71
2022/01/20 00:49:33;;;;;;;29.73;8.95;;;;;;;-145.82;100.00;61645.16;4964061;28;20039;-70
2022/01/20 00:52:00;;;;;;;43.90;9.85;;;;;;;-145.82;100.00;61645.16;4964921;28;20034;-70
2022/01/20 00:54:26;;;;;;;44.75;10.73;;;;;;;-145.82;100.00;61645.16;4963632;28;20039;-71
2022/01/20 00:56:52;;;;;;;48.35;10.18;;;;;;;-145.82;100.00;61645.16;4978587;28;20046;-71
2022/01/20 00:59:17;;;;;;;37.78;10.57;;;;;;;-145.82;100.00;61645.16;4964205;28;20227;-71
2022/01/20 01:01:43;;;;;;;21.00;7.35;;;;;;;-145.82;100.00;61645.16;4963229;28;20039;-69
2022/01/20 01:04:10;;;;;;;23.15;7.40;;;;;;;-145.82;100.00;61645.16;4963749;28;20158;-70
2022/01/20 01:06:49;;;;;;;49.63;11.30;;;;;;;-145.82;100.00;61645.16;4962353;28;20038;-71
2022/01/20 01:09:15;;;;;;;33.95;8.52;;;;;;;-145.82;100.00;61645.16;4978083;28;20030;-70
2022/01/20 01:11:43;;;;;;;46.00;11.00;;;;;;;-145.82;100.00;61645.16;4979563;28;20026;-69
2022/01/20 01:14:09;;;;;;;46.17;10.63;;;;;;;-145.82;100.00;61645.16;4963234;28;20100;-70
2022/01/20 01:20:12;;;;;;;27.42;6.90;;;;;;;-145.82;100.00;61645.16;4964502;28;20429;-69
2022/01/20 01:24:40;;;;;;;33.40;10.05;;;;;;;-145.82;100.00;61645.16;4978587;28;20038;-72
2022/01/20 01:27:06;;;;;;;17.27;5.60;;;;;;;-145.82;100.00;61645.16;4962417;28;20041;-69
2022/01/20 01:32:07;;;;;;;31.35;6.78;;;;;;;-145.82;100.00;61645.16;4977312;28;20034;-71
2022/01/20 01:34:35;;;;;;;28.85;8.48;;;;;;;-145.82;100.00;61645.16;4978977;28;20097;-70
2022/01/20 01:39:26;;;;;;;13.73;5.10;;;;;;;-145.82;100.00;61645.16;4979837;28;20031;-70
2022/01/20 01:41:53;;;;;;;22.10;7.00;;;;;;;-145.82;100.00;61645.16;4979310;28;20125;-70
2022/01/20 01:44:25;;;;;;;32.88;9.80;;;;;;;-145.82;100.00;61645.16;4961980;28;20042;-69
2022/01/20 01:46:56;;;;;;;25.17;8.10;;;;;;;-145.82;100.00;61645.16;4976110;28;20081;-70
2022/01/20 01:49:22;;;;;;;38.95;10.50;;;;;;;-145.82;100.00;61645.16;4978080;28;20039;-69
2022/01/20 01:51:49;;;;;;;30.60;9.07;;;;;;;-145.82;100.00;61645.16;4978322;28;20042;-69
2022/01/20 01:54:16;;;;;;;32.20;7.00;;;;;;;-145.82;100.00;61645.16;4978052;28;20474;-69
2022/01/20 01:56:44;;;;;;;32.45;9.40;;;;;;;-145.82;100.00;61645.16;4960370;28;20038;-69
2022/01/20 01:59:13;;;;;;;27.40;9.93;;;;;;;-145.82;100.00;61645.16;4977666;28;20042;-70
2022/01/20 02:01:58;;;;;;;17.17;5.45;;;;;;;-145.82;100.00;61645.16;4931215;28;20051;-69
2022/01/20 02:04:25;;;;;;;35.22;8.15;;;;;;;-145.82;100.00;61645.16;4978587;28;20043;-69
2022/01/20 02:20:34;;;;;;;27.63;6.13;;;;;;;-145.82;100.00;61645.16;4958578;28;20055;-70
2022/01/20 02:23:02;;;;;;;24.25;7.53;;;;;;;-145.82;100.00;61645.16;4961243;28;20459;-69
2022/01/20 02:25:33;;;;;;;29.20;7.47;;;;;;;-145.82;100.00;61645.16;4961508;28;20402;-71
2022/01/20 02:28:03;;;;;;;16.60;6.55;;;;;;;-145.82;100.00;61645.16;4976532;28;20440;-69
2022/01/20 02:30:30;;;;;;;39.88;10.95;;;;;;;-145.82;100.00;61645.16;4976234;28;20061;-71
2022/01/20 02:33:02;;;;;;;26.38;6.18;;;;;;;-145.82;100.00;61645.16;4978035;28;20188;-69
2022/01/20 02:35:34;;;;;;;32.10;7.45;;;;;;;-145.82;100.00;61645.16;4977512;28;20137;-69
2022/01/20 02:38:29;;;;;;;33.15;7.78;;;;;;;-145.82;100.00;61645.16;4977110;28;20415;-70
2022/01/20 02:44:51;;;;;;;37.85;8.27;;;;;;;-145.82;100.00;61645.16;4961754;28;20043;-70
2022/01/20 02:46:17;;;;;;;36.40;6.57;;;;;;;-145.82;100.00;61645.16;4976964;28;20038;-69
2022/01/20 02:48:43;;;;;;;44.03;8.95;;;;;;;-145.82;100.00;61645.16;4977254;28;20039;-70
2022/01/20 02:51:09;;;;;;;36.00;6.47;;;;;;;-145.82;100.00;61645.16;4961324;28;20038;-70
2022/01/20 02:53:35;;;;;;;20.48;5.97;;;;;;;-145.82;100.00;61645.16;4980564;28;20065;-70
2022/01/20 02:56:01;;;;;;;18.45;6.75;;;;;;;-145.82;100.00;61645.16;4964641;28;20513;-70
2022/01/20 02:58:29;;;;;;;17.42;5.65;;;;;;;-145.82;100.00;61645.16;4976639;28;20105;-69
2022/01/20 03:00:55;;;;;;;32.28;8.02;;;;;;;-145.82;100.00;61645.16;4975216;28;20046;-69
2022/01/20 03:03:21;;;;;;;25.67;4.55;;;;;;;-145.82;100.00;61645.16;4963163;28;20474;-70
2022/01/20 03:05:47;;;;;;;12.77;4.20;;;;;;;-145.82;100.00;61645.16;4963989;28;20089;-70
2022/01/20 03:08:12;;;;;;;29.02;6.05;;;;;;;-145.82;100.00;61645.16;4962017;28;20051;-71
2022/01/20 03:10:38;;;;;;;21.67;4.68;;;;;;;-145.82;100.00;61645.16;4981380;28;20038;-69
2022/01/20 03:13:05;;;;;;;38.17;7.95;;;;;;;-145.82;100.00;61645.16;4979752;28;20043;-69
2022/01/20 03:15:34;;;;;;;18.15;5.75;;;;;;;-145.82;100.00;61645.16;4966699;28;20031;-70
2022/01/20 03:18:00;;;;;;;16.83;4.50;;;;;;;-145.82;100.00;61645.16;4980421;28;20023;-70
2022/01/20 03:20:25;;;;;;;14.55;3.65;;;;;;;-145.82;100.00;61645.16;4967317;28;20031;-72
2022/01/20 03:22:51;;;;;;;17.55;4.75;;;;;;;-145.82;100.00;61645.16;4980236;28;20033;-70
2022/01/20 03:25:17;;;;;;;19.13;4.72;;;;;;;-145.82;100.00;61645.16;4979941;28;20035;-69
2022/01/20 03:27:42;;;;;;;13.07;3.85;;;;;;;-145.82;100.00;61645.16;4963281;28;20422;-71
2022/01/20 03:30:09;;;;;;;8.50;3.72;;;;;;;-145.82;100.00;61645.16;4979836;28;20209;-69
2022/01/20 03:32:34;;;;;;;28.73;6.32;;;;;;;-145.82;100.00;61645.16;4965653;28;20708;-70
2022/01/20 03:35:03;;;;;;;57.55;6.57;;;;;;;-145.82;100.00;61645.16;4979685;28;20374;-69
2022/01/20 03:37:34;;;;;;;32.05;5.57;;;;;;;-145.82;100.00;61645.16;4978985;28;20035;-72
2022/01/20 03:40:04;;;;;;;29.80;6.13;;;;;;;-145.82;100.00;61645.16;4964816;28;20561;-69
2022/01/20 03:42:30;;;;;;;11.20;3.95;;;;;;;-145.82;100.00;61645.16;4981510;28;20193;-70
2022/01/20 03:44:55;;;;;;;21.45;6.07;;;;;;;-145.82;100.00;61645.16;4979424;28;20137;-69
2022/01/20 03:47:24;;;;;;;14.52;3.65;;;;;;;-145.82;100.00;61645.16;4963836;28;20049;-69
2022/01/20 03:50:05;;;;;;;17.35;4.13;;;;;;;-145.82;100.00;61645.16;4963695;28;20031;-72
2022/01/20 03:52:30;;;;;;;9.45;4.55;;;;;;;-145.82;100.00;61645.16;4965762;28;20042;-71
2022/01/20 03:54:56;;;;;;;17.90;4.65;;;;;;;-145.82;100.00;61645.16;4965388;28;20437;-69
2022/01/20 03:57:21;;;;;;;21.10;5.10;;;;;;;-145.82;100.00;61645.16;4964792;28;20114;-69
2022/01/20 04:00:10;;;;;;;28.23;5.93;;;;;;;-145.82;100.00;61645.16;4959757;28;20618;-70
2022/01/20 04:03:06;;;;;;;17.98;6.05;;;;;;;-145.82;100.00;61645.16;4981696;28;20085;-70
2022/01/20 04:05:31;;;;;;;17.88;7.55;;;;;;;-145.82;100.00;61645.16;4966907;28;20042;-71
2022/01/20 04:08:20;;;;;;;13.57;5.03;;;;;;;-145.82;100.00;61645.16;4978901;28;20604;-70
2022/01/20 04:10:45;;;;;;;14.23;3.58;;;;;;;-145.82;100.00;61645.16;4979092;28;20167;-70
2022/01/20 04:13:11;;;;;;;13.52;4.95;;;;;;;-145.82;100.00;61645.16;4979634;28;20046;-69
2022/01/20 04:15:39;;;;;;;12.63;4.60;;;;;;;-145.82;100.00;61645.16;4963880;28;20031;-69
2022/01/20 04:18:07;;;;;;;29.13;5.95;;;;;;;-145.82;100.00;61645.16;4978819;28;20507;-69
2022/01/20 04:20:32;;;;;;;9.00;3.70;;;;;;;-145.82;100.00;61645.16;4963449;28;20797;-71
2022/01/20 04:22:58;;;;;;;27.13;5.40;;;;;;;-145.82;100.00;61645.16;4978471;28;20030;-70
2022/01/20 04:25:25;;;;;;;8.35;3.78;;;;;;;-145.82;100.00;61645.16;4979683;28;20037;-71
2022/01/20 04:27:50;;;;;;;15.35;5.13;;;;;;;-145.82;100.00;61645.16;4964292;28;20379;-70
2022/01/20 04:30:16;;;;;;;11.65;3.63;;;;;;;-145.82;100.00;61645.16;4962064;28;20451;-69
2022/01/20 04:32:41;;;;;;;15.55;4.63;;;;;;;-145.82;100.00;61645.16;4964195;28;20560;-71
2022/01/20 04:35:07;;;;;;;17.98;5.13;;;;;;;-145.82;100.00;61645.16;4963849;28;20046;-70
2022/01/20 04:37:33;;;;;;;16.05;5.57;;;;;;;-145.82;100.00;61645.16;4977974;28;20034;-72
2022/01/20 04:40:02;;;;;;;6.63;3.97;;;;;;;-145.82;100.00;61645.16;4963438;28;20177;-72
2022/01/20 04:42:30;;;;;;;6.53;3.08;;;;;;;-145.82;100.00;61645.16;4978814;28;20513;-69
2022/01/20 04:45:02;;;;;;;13.57;4.38;;;;;;;-145.82;100.00;61645.16;4978532;28;20043;-68
2022/01/20 04:58:07;;;;;;;16.70;4.93;;;;;;;-145.82;100.00;61645.16;4962280;28;20034;-69
2022/01/20 05:00:34;;;;;;;33.45;5.57;;;;;;;-145.82;100.00;61645.16;4962474;28;20514;-69
2022/01/20 05:03:18;;;;;;;19.77;7.60;;;;;;;-145.82;100.00;61645.16;4964602;28;20130;-69
2022/01/20 05:05:45;;;;;;;10.70;3.58;;;;;;;-145.82;100.00;61645.16;4979318;28;20039;-69
2022/01/20 05:08:22;;;;;;;15.55;3.72;;;;;;;-145.82;100.00;61645.16;4977279;28;20474;-69
2022/01/20 05:10:47;;;;;;;9.45;3.70;;;;;;;-145.82;100.00;61645.16;4979118;28;20097;-69
2022/01/20 05:13:22;;;;;;;9.55;4.30;;;;;;;-145.82;100.00;61645.16;4979966;28;20055;-69
2022/01/20 05:15:49;;;;;;;20.00;5.85;;;;;;;-145.82;100.00;61645.16;4978599;28;20777;-70
2022/01/20 05:18:14;;;;;;;13.10;4.45;;;;;;;-145.82;100.00;61645.16;4962307;28;20296;-70
2022/01/20 05:20:41;;;;;;;14.63;3.92;;;;;;;-145.82;100.00;61645.16;4978285;28;20481;-70
2022/01/20 05:23:06;;;;;;;12.57;3.90;;;;;;;-145.82;100.00;61645.16;4978690;28;20049;-70
2022/01/20 05:25:32;;;;;;;15.25;4.75;;;;;;;-145.82;100.00;61645.16;4978633;28;20177;-70
2022/01/20 05:27:58;;;;;;;14.65;3.70;;;;;;;-145.82;100.00;61645.16;4961359;28;20042;-69
2022/01/20 05:30:24;;;;;;;10.30;3.20;;;;;;;-145.82;100.00;61645.16;4976535;28;20057;-70
2022/01/20 05:33:09;;;;;;;17.15;4.03;;;;;;;-145.82;100.00;61645.16;4962771;28;20382;-70
2022/01/20 05:35:35;;;;;;;12.15;3.42;;;;;;;-145.82;100.00;61645.16;4963784;28;20476;-71
2022/01/20 05:38:00;;;;;;;15.75;4.78;;;;;;;-145.82;100.00;61645.16;4976630;28;20030;-70
2022/01/20 05:40:27;;;;;;;9.65;4.13;;;;;;;-145.82;100.00;61645.16;4947318;28;20251;-71
2022/01/20 05:42:53;;;;;;;8.43;2.80;;;;;;;-145.82;100.00;61645.16;4978057;28;20046;-72
2022/01/20 05:45:19;;;;;;;12.85;4.40;;;;;;;-145.82;100.00;61645.16;4978274;28;20041;-71
2022/01/20 05:47:48;;;;;;;5.45;3.58;;;;;;;-145.82;100.00;61645.16;4976534;28;20042;-71
2022/01/20 05:50:34;;;;;;;16.92;5.45;;;;;;;-145.82;100.00;61645.16;4962765;28;20057;-71
2022/01/20 05:52:59;;;;;;;10.95;4.05;;;;;;;-145.82;100.00;61645.16;4977094;28;20042;-71
2022/01/20 05:55:25;;;;;;;10.50;5.03;;;;;;;-145.82;100.00;61645.16;4961644;28;20062;-69
2022/01/20 05:57:50;;;;;;;15.55;4.60;;;;;;;-145.82;100.00;61645.16;4977711;28;20840;-69
2022/01/20 06:00:24;;;;;;;10.68;3.47;;;;;;;-145.82;100.00;61645.16;4976472;28;20617;-71
2022/01/20 06:05:41;;;;;;;8.68;3.78;;;;;;;-145.82;100.00;61645.16;4977283;28;20065;-71
2022/01/20 06:08:10;;;;;;;10.25;4.60;;;;;;;-145.82;100.00;61645.16;4975660;28;20023;-71
2022/01/20 06:10:36;;;;;;;10.68;3.60;;;;;;;-145.82;100.00;61645.16;4962050;28;20030;-70
2022/01/20 06:13:24;;;;;;;13.45;4.38;;;;;;;-145.82;100.00;61645.16;4976989;28;20122;-72
2022/01/20 06:15:49;;;;;;;14.82;3.60;;;;;;;-145.82;100.00;61645.16;4963404;28;20043;-70
2022/01/20 06:18:15;;;;;;;6.00;2.58;;;;;;;-145.82;100.00;61645.16;4977468;28;20082;-70
2022/01/20 06:20:48;;;;;;;12.95;4.93;;;;;;;-145.82;100.00;61645.16;4978739;28;20046;-70
2022/01/20 06:23:15;;;;;;;6.63;3.47;;;;;;;-145.82;100.00;61645.16;4978596;28;20392;-70
2022/01/20 06:25:43;;;;;;;15.60;4.05;;;;;;;-145.82;100.00;61645.16;4962982;28;20039;-70
2022/01/20 06:28:09;;;;;;;10.00;3.58;;;;;;;-145.82;100.00;61645.16;4977835;28;20355;-70
2022/01/20 06:30:35;;;;;;;18.55;4.07;;;;;;;-145.82;100.00;61645.16;4976445;28;20097;-70
2022/01/20 06:33:02;;;;;;;12.00;3.38;;;;;;;-145.82;100.00;61645.16;4963650;28;20514;-71
2022/01/20 06:35:35;;;;;;;8.75;3.47;;;;;;;-145.82;100.00;61645.16;4978218;28;20030;-69
2022/01/20 06:38:01;;;;;;;9.55;3.75;;;;;;;-145.82;100.00;61645.16;4976203;28;20035;-70
2022/01/20 06:40:27;;;;;;;21.85;3.35;;;;;;;-145.82;100.00;61645.16;4978470;28;20129;-70
2022/01/20 06:42:54;;;;;;;6.30;2.80;;;;;;;-145.82;100.00;61645.16;4976369;28;20062;-69
2022/01/20 06:45:21;;;;;;;7.20;3.38;;;;;;;-145.82;100.00;61645.16;4961028;28;20345;-72
2022/01/20 06:47:51;;;;;;;15.63;3.58;;;;;;;-145.82;100.00;61645.16;4962683;28;20437;-69
2022/01/20 06:50:17;;;;;;;7.18;2.70;;;;;;;-145.82;100.00;61645.16;4976915;28;20043;-71
2022/01/20 06:52:46;;;;;;;4.20;2.90;;;;;;;-145.82;100.00;61645.16;4978556;28;20050;-70
2022/01/20 06:55:13;;;;;;;6.18;1.75;;;;;;;-145.82;100.00;61645.16;4959727;28;20699;-70
2022/01/20 06:57:39;;;;;;;15.45;4.07;;;;;;;-145.82;100.00;61645.16;4976725;28;20085;-70
2022/01/20 07:00:09;;;;;;;11.43;3.85;;;;;;;-145.82;100.00;61645.16;4975737;28;20039;-70
2022/01/20 07:02:35;;;;;;;7.97;2.42;;;;;;;-145.82;100.00;61645.16;4960259;28;20035;-71
2022/01/20 07:05:01;;;;;;;3.47;2.15;;;;;;;-145.82;100.00;61645.16;4977268;28;20065;-70
2022/01/20 07:07:26;;;;;;;15.00;3.60;;;;;;;-145.82;100.00;61645.16;4977140;28;20034;-71
2022/01/20 07:10:04;;;;;;;6.22;1.45;;;;;;;-145.82;100.00;61645.16;4960727;28;20039;-71
2022/01/20 07:12:41;;;;;;;4.20;2.28;;;;;;;-145.82;100.00;61645.16;4977238;28;20085;-71
2022/01/20 07:15:07;;;;;;;9.35;3.30;;;;;;;-145.82;100.00;61645.16;4976187;28;20051;-70
2022/01/20 07:17:33;;;;;;;9.38;3.88;;;;;;;-145.82;100.00;61645.16;4976328;28;20027;-70
2022/01/20 07:19:59;;;;;;;7.75;3.00;;;;;;;-145.82;100.00;61645.16;4977089;28;20355;-70
2022/01/20 07:22:25;;;;;;;7.50;3.30;;;;;;;-145.82;100.00;61645.16;4978754;28;20488;-70
2022/01/20 07:24:54;;;;;;;6.70;3.10;;;;;;;-145.82;100.00;61645.16;4973131;28;20378;-70
2022/01/20 07:27:57;;;;;;;11.00;3.85;;;;;;;-145.82;100.00;61645.16;4956973;28;20033;-70
2022/01/20 07:30:23;;;;;;;4.70;2.83;;;;;;;-145.82;100.00;61645.16;4960010;28;20050;-72
2022/01/20 07:32:49;;;;;;;5.57;2.72;;;;;;;-145.82;100.00;61645.16;4976047;28;20066;-71
2022/01/20 07:35:19;;;;;;;8.43;2.30;;;;;;;-145.82;100.00;61645.16;4976254;28;20122;-69
2022/01/20 07:37:45;;;;;;;7.32;2.60;;;;;;;-145.82;100.00;61645.16;4960499;28;20034;-71
2022/01/20 07:40:12;;;;;;;9.40;3.05;;;;;;;-145.82;100.00;61645.16;4975060;28;20054;-70
2022/01/20 07:42:37;;;;;;;8.63;3.50;;;;;;;-145.82;100.00;61645.16;4963759;28;20085;-70
2022/01/20 07:45:08;;;;;;;12.57;1.85;;;;;;;-145.82;100.00;61645.16;4974876;28;20039;-70
2022/01/20 07:47:56;;;;;;;5.78;1.98;;;;;;;-145.82;100.00;61645.16;4974693;28;20042;-70
2022/01/20 07:50:22;;;;;;;19.08;3.33;;;;;;;-145.82;100.00;61645.16;4976355;28;20046;-70
2022/01/20 07:52:47;;;;;;;6.70;2.58;;;;;;;-145.82;100.00;61645.16;4960479;28;20114;-70
2022/01/20 07:55:14;;;;;;;13.07;2.67;;;;;;;-145.82;100.00;61645.16;4974769;28;20038;-70
2022/01/20 07:57:40;;;;;;;5.93;2.28;;;;;;;-145.82;100.00;61645.16;4964734;28;20505;-71
2022/01/20 08:00:07;;;;;;;14.93;2.70;;;;;;;-145.82;100.00;61645.16;4979566;28;20046;-72
2022/01/20 08:02:45;;;;;;;7.47;2.90;;;;;;;-145.82;100.00;61645.16;4965059;28;20573;-71
2022/01/20 08:05:19;;;;;;;11.82;2.20;;;;;;;-145.82;100.00;61645.16;4982080;28;20035;-70
2022/01/20 08:07:45;;;;;;;8.10;3.20;;;;;;;-145.82;100.00;61645.16;4979111;28;20046;-71
2022/01/20 08:10:12;;;;;;;7.38;2.35;;;;;;;-145.82;100.00;61645.16;4979437;28;20022;-70
2022/01/20 08:12:38;;;;;;;8.90;3.28;;;;;;;-145.82;100.00;61645.16;4965218;28;20045;-69
2022/01/20 08:15:12;;;;;;;10.60;2.15;;;;;;;-145.82;100.00;61645.16;373585;28;10022746;-70
2022/01/20 08:18:00;;;;;;;12.40;3.17;;;;;;;-145.82;100.00;61645.16;4979850;28;20440;-70
2022/01/20 08:20:26;;;;;;;16.90;4.40;;;;;;;-145.82;100.00;61645.16;4981195;28;20470;-72
2022/01/20 08:22:56;;;;;;;21.25;2.60;;;;;;;-145.82;100.00;61645.16;4980443;28;20489;-70
2022/01/20 08:25:23;;;;;;;17.23;3.17;;;;;;;-145.82;100.00;61645.16;4981104;28;20137;-71
2022/01/20 08:27:49;;;;;;;6.53;1.80;;;;;;;-145.82;100.00;61645.16;4980309;28;20138;-69
2022/01/20 08:30:17;;;;;;;14.75;2.85;;;;;;;-145.82;100.00;61645.16;4978648;28;20401;-69
2022/01/20 08:32:44;;;;;;;9.80;2.17;;;;;;;-145.82;100.00;61645.16;4980514;28;20051;-70
2022/01/20 08:35:32;;;;;;;17.38;2.97;;;;;;;-145.82;100.00;61645.16;4978402;28;20030;-70
2022/01/20 08:38:03;;;;;;;14.07;2.88;;;;;;;-145.82;100.00;61645.16;4978129;28;20529;-70
2022/01/20 08:40:29;;;;;;;11.40;2.83;;;;;;;-145.82;100.00;61645.16;4981121;28;20038;-70
2022/01/20 08:42:56;;;;;;;13.82;2.45;;;;;;;-145.82;100.00;61645.16;4975148;28;20373;-70
2022/01/20 08:45:24;;;;;;;6.68;2.00;;;;;;;-145.82;100.00;61645.16;4616284;28;9999792;-70
2022/01/20 08:47:54;;;;;;;16.85;2.83;;;;;;;-145.82;100.00;61645.16;4632755;28;10000046;-70
2022/01/20 08:50:22;;;;;;;21.05;2.95;;;;;;;-145.82;100.00;61645.16;4975469;28;20089;-70
2022/01/20 08:52:49;;;;;;;15.45;2.70;;;;;;;-145.82;100.00;61645.16;4961341;28;20290;-70
2022/01/20 08:55:16;;;;;;;11.10;2.38;;;;;;;-145.82;100.00;61645.16;4974295;28;20101;-69
2022/01/20 08:57:52;;;;;;;16.30;2.75;;;;;;;-145.82;100.00;61645.16;4977114;28;20138;-71
2022/01/20 09:00:19;;;;;;;11.43;2.60;;;;;;;-145.82;100.00;61645.16;4976366;28;20035;-70
2022/01/20 09:02:53;;;;;;;25.85;1.85;;;;;;;-145.82;100.00;61645.16;4974167;28;20461;-71
2022/01/20 09:05:19;;;;;;;12.25;2.10;;;;;;;-145.82;100.00;61645.16;4975570;28;20047;-69
2022/01/20 09:08:04;;;;;;;11.35;3.15;;;;;;;-145.82;100.00;61645.16;4957570;28;20606;-71
2022/01/20 09:10:37;;;;;;;16.08;2.72;;;;;;;-145.82;100.00;61645.16;4975496;28;20486;-69
2022/01/20 09:15:54;;;;;;;12.80;2.70;;;;;;;-145.82;100.00;61645.16;4976872;28;20105;-70
2022/01/20 09:18:32;;;;;;;8.63;1.83;;;;;;;-145.82;100.00;61645.16;4977040;28;20061;-69
2022/01/20 09:20:59;;;;;;;15.20;2.92;;;;;;;-145.82;100.00;61645.16;4958821;28;20221;-70
2022/01/20 09:23:24;;;;;;;11.35;3.22;;;;;;;-145.82;100.00;61645.16;4974105;28;20330;-71
2022/01/20 09:25:50;;;;;;;10.88;1.83;;;;;;;-145.82;100.00;61645.16;4962311;28;20381;-70
2022/01/20 09:28:17;;;;;;;16.75;3.20;;;;;;;-145.82;100.00;61645.16;4974739;28;20042;-71
2022/01/20 09:30:46;;;;;;;9.43;2.47;;;;;;;-145.82;100.00;61645.16;4974313;28;20446;-70
2022/01/20 09:33:25;;;;;;;21.77;2.38;;;;;;;-145.82;100.00;61645.16;4631007;28;9999651;-72
2022/01/20 09:35:50;;;;;;;7.32;2.47;;;;;;;-145.82;100.00;61645.16;4975737;28;20359;-70
2022/01/20 09:38:16;;;;;;;16.63;2.47;;;;;;;-145.82;100.00;61645.16;4973342;28;20039;-70
2022/01/20 09:40:43;;;;;;;3.22;1.30;;;;;;;-145.82;100.00;61645.16;4977421;28;20433;-72
2022/01/20 09:43:14;;;;;;;5.95;2.58;;;;;;;-145.82;100.00;61645.16;4972168;28;20277;-72
2022/01/20 09:45:40;;;;;;;15.20;2.38;;;;;;;-145.82;100.00;61645.16;4975642;28;20070;-71
2022/01/20 09:48:06;;;;;;;2.40;1.42;;;;;;;-145.82;100.00;61645.16;4975250;28;20415;-71
2022/01/20 09:50:44;;;;;;;12.18;2.13;;;;;;;-145.82;100.00;61645.16;4962341;28;20125;-70
2022/01/20 09:53:31;;;;;;;7.82;1.98;;;;;;;-145.82;100.00;61645.16;4975352;28;20525;-69
2022/01/20 09:56:14;;;;;;;4.85;1.58;;;;;;;-145.82;100.00;61645.16;4975044;28;20437;-70
2022/01/20 09:58:40;;;;;;;10.15;2.20;;;;;;;-145.82;100.00;61645.16;4976484;28;20529;-71
2022/01/20 10:01:06;;;;;;;4.55;1.67;;;;;;;-145.82;100.00;61645.16;4977401;28;20066;-72
2022/01/20 10:03:34;;;;;;;11.38;2.13;;;;;;;-145.82;100.00;61645.16;4975476;28;20043;-70
2022/01/20 10:06:03;;;;;;;8.35;2.03;;;;;;;-145.82;100.00;61645.16;4976873;28;20109;-72
2022/01/20 10:08:36;;;;;;;18.08;2.78;;;;;;;-145.82;100.00;61645.16;4959952;28;20039;-69
2022/01/20 10:11:23;;;;;;;4.73;1.67;;;;;;;-145.82;100.00;61645.16;4973750;28;20046;-70
2022/01/20 10:14:13;;;;;;;9.88;2.15;;;;;;;-145.82;100.00;61645.16;4972889;28;20051;-70
2022/01/20 10:16:55;;;;;;;13.15;2.10;;;;;;;-145.82;100.00;61645.16;4969879;28;20043;-72
2022/01/20 10:19:27;;;;;;;16.00;2.80;;;;;;;-145.82;100.00;61645.16;4974814;28;20430;-70
2022/01/20 10:21:53;;;;;;;11.90;2.08;;;;;;;-145.82;100.00;61645.16;4973383;28;20085;-70
2022/01/20 10:24:37;;;;;;;16.35;2.40;;;;;;;-145.82;100.00;61645.16;4962251;28;20050;-70
2022/01/20 10:27:23;;;;;;;4.68;0.95;;;;;;;-145.82;100.00;61645.16;4960073;28;20038;-70
2022/01/20 10:30:01;;;;;;;14.70;2.15;;;;;;;-145.82;100.00;61645.16;4974433;28;20383;-71
2022/01/20 10:32:39;;;;;;;12.05;2.00;;;;;;;-145.82;100.00;61645.16;4974331;28;20977;-71
2022/01/20 10:35:06;;;;;;;12.20;1.58;;;;;;;-145.82;100.00;61645.16;4942775;28;20043;-68
2022/01/20 10:37:35;;;;;;;10.68;1.48;;;;;;;-145.82;100.00;61645.16;4974966;28;20500;-69
2022/01/20 10:40:13;;;;;;;12.40;2.05;;;;;;;-145.82;100.00;61645.16;4973016;28;20533;-68
2022/01/20 10:42:46;;;;;;;7.13;1.75;;;;;;;-145.82;100.00;61645.16;4959598;28;20533;-71
2022/01/20 10:45:38;;;;;;;6.78;1.45;;;;;;;-145.82;100.00;61645.16;4955702;28;20045;-68
2022/01/20 10:48:04;;;;;;;4.47;1.63;;;;;;;-145.82;100.00;61645.16;4971315;28;20158;-69
2022/01/20 10:50:36;;;;;;;19.92;1.88;;;;;;;-145.82;100.00;61645.16;4973989;28;20038;-69
2022/01/20 10:53:03;;;;;;;7.28;1.35;;;;;;;-145.82;100.00;61645.16;4973042;28;20034;-68
2022/01/20 10:55:35;;;;;;;5.55;1.02;;;;;;;-145.82;100.00;61645.16;4975768;28;20113;-69
2022/01/20 10:58:23;;;;;;;5.63;1.23;;;;;;;-145.82;100.00;61645.16;4976770;28;20108;-70
2022/01/20 11:00:52;;;;;;;15.02;1.95;;;;;;;-145.82;100.00;61645.16;4976532;28;20035;-70
2022/01/20 11:03:20;;;;;;;7.05;1.02;;;;;;;-145.82;100.00;61645.16;4978196;28;20643;-69
2022/01/20 11:05:51;;;;;;;11.88;1.52;;;;;;;-145.82;100.00;61645.16;4977888;28;20053;-70
2022/01/20 11:08:38;;;;;;;7.05;2.10;;;;;;;-145.82;100.00;61645.16;4977432;28;20034;-69
2022/01/20 11:11:04;;;;;;;11.20;1.38;;;;;;;-145.82;100.00;61645.16;4976884;28;20240;-68
2022/01/20 11:13:42;;;;;;;5.47;1.35;;;;;;;-145.82;100.00;61645.16;4963328;28;20102;-69
2022/01/20 11:16:08;;;;;;;14.05;1.88;;;;;;;-145.82;100.00;61645.16;4977291;28;20045;-69
2022/01/20 11:18:34;;;;;;;8.73;2.15;;;;;;;-145.82;100.00;61645.16;4963779;28;20041;-69
2022/01/20 11:21:02;;;;;;;10.63;1.50;;;;;;;-145.82;100.00;61645.16;4615400;28;10000117;-70
2022/01/20 11:23:42;;;;;;;6.93;1.88;;;;;;;-145.82;100.00;61645.16;4975035;28;20045;-70
2022/01/20 11:26:57;;;;;;;13.65;2.42;;;;;;;-145.82;100.00;61645.16;4936927;28;20360;-70
2022/01/20 11:30:23;;;;;;;17.50;1.83;;;;;;;-145.82;100.00;61645.16;4923716;28;20089;-70
2022/01/20 11:33:12;;;;;;;12.68;1.08;;;;;;;-145.82;100.00;61645.16;4961476;28;20055;-68
2022/01/20 11:35:47;;;;;;;22.60;1.85;;;;;;;-145.82;100.00;61645.16;4978260;28;20093;-71
2022/01/20 11:38:19;;;;;;;22.73;3.28;;;;;;;-145.82;100.00;61645.16;4962671;28;20047;-68
2022/01/20 11:41:03;;;;;;;8.05;1.40;;;;;;;-145.82;100.00;61645.16;4980036;28;20450;-69
2022/01/20 11:43:52;;;;;;;10.45;1.48;;;;;;;-145.82;100.00;61645.16;4961813;28;20050;-68
2022/01/20 11:46:20;;;;;;;3.58;0.90;;;;;;;-145.82;100.00;61645.16;4963184;28;20035;-68
2022/01/20 11:49:08;;;;;;;7.18;1.52;;;;;;;-145.82;100.00;61645.16;4963257;28;20501;-69
2022/01/20 11:51:50;;;;;;;11.85;1.92;;;;;;;-145.82;100.00;61645.16;4964517;28;20386;-68
2022/01/20 11:54:26;;;;;;;6.68;1.40;;;;;;;-145.82;100.00;61645.16;4961493;28;20039;-71
2022/01/20 11:57:02;;;;;;;4.88;1.40;;;;;;;-145.82;100.00;61645.16;4964005;28;20039;-69
2022/01/20 11:59:38;;;;;;;15.85;2.00;;;;;;;-145.82;100.00;61645.16;4962576;28;20035;-71
2022/01/20 12:02:04;;;;;;;12.85;3.40;;;;;;;-145.82;100.00;61645.16;4963128;28;20058;-69
2022/01/20 12:04:32;;;;;;;12.77;1.90;;;;;;;-145.82;100.00;61645.16;4977602;28;20480;-71
2022/01/20 12:06:58;;;;;;;7.28;1.52;;;;;;;-145.82;100.00;61645.16;4975744;28;20064;-69
2022/01/20 12:09:42;;;;;;;14.32;1.95;;;;;;;-145.82;100.00;61645.16;4964421;28;20137;-69
2022/01/20 12:12:24;;;;;;;12.68;2.65;;;;;;;-145.82;100.00;61645.16;4964587;28;20039;-69
2022/01/20 12:14:50;;;;;;;21.15;2.00;;;;;;;-145.82;100.00;61645.16;4965261;28;20038;-68
2022/01/20 12:17:15;;;;;;;9.55;1.40;;;;;;;-145.82;100.00;61645.16;4963834;28;20715;-68
2022/01/20 12:19:43;;;;;;;5.03;1.30;;;;;;;-145.82;100.00;61645.16;4965680;28;20042;-68
2022/01/20 12:22:09;;;;;;;12.82;2.35;;;;;;;-145.82;100.00;61645.16;4966466;28;20113;-70
2022/01/20 12:24:36;;;;;;;12.93;2.00;;;;;;;-145.82;100.00;61645.16;4964609;28;20201;-70
2022/01/20 12:27:14;;;;;;;10.45;1.50;;;;;;;-145.82;100.00;61645.16;4965857;28;20039;-68